Time;durP1;ratioP1;P1;durP2;ratioP2;P2;SDS_P1;SDS_P2;PMS_P1;PMS_P2;Temp;Humidity;BMP_temperature;BMP_pressure;BME280_temperature;BME280_humidity;BME280_pressure;Samples;Min_cycle;Max_cycle;Signal;HPM_P1;HPM_P2
2022/11/23 00:01:12;;;;;;;63.50;28.80;;;;;;;0.89;100.00;98381.44;104099;1332;22367;-36
2022/11/23 00:03:37;;;;;;;73.30;32.10;;;;;;;0.89;100.00;98385.05;104117;1339;22182;-36
2022/11/23 00:06:03;;;;;;;63.50;26.70;;;;;;;0.86;100.00;98387.45;104118;1334;22531;-37
2022/11/23 00:08:28;;;;;;;81.80;34.40;;;;;;;0.83;100.00;98386.69;104099;1339;22350;-33
2022/11/23 00:10:57;;;;;;;79.50;31.20;;;;;;;0.73;100.00;98385.23;104074;1339;22493;-37
2022/11/23 00:13:22;;;;;;;96.40;31.50;;;;;;;0.63;100.00;98386.46;104093;1339;22146;-36
2022/11/23 00:15:48;;;;;;;54.40;22.00;;;;;;;0.60;100.00;98387.90;104085;1331;22155;-36
2022/11/23 00:18:14;;;;;;;72.40;31.00;;;;;;;0.62;100.00;98388.14;104091;1333;22296;-37
2022/11/23 00:20:39;;;;;;;50.20;23.50;;;;;;;0.67;100.00;98385.55;104129;1339;22191;-33
2022/11/23 00:23:05;;;;;;;40.70;19.90;;;;;;;0.65;100.00;98384.35;104112;1333;22190;-37
2022/11/23 00:25:30;;;;;;;51.50;23.40;;;;;;;0.60;100.00;98393.36;103988;1339;22517;-33
2022/11/23 00:27:56;;;;;;;64.00;27.10;;;;;;;0.50;100.00;98397.13;103694;1334;22047;-36
2022/11/23 00:30:21;;;;;;;62.10;27.00;;;;;;;0.38;100.00;98395.88;104102;1334;22579;-36
2022/11/23 00:32:47;;;;;;;55.50;23.40;;;;;;;0.32;100.00;98401.15;104123;1339;22520;-36
2022/11/23 00:35:12;;;;;;;60.10;26.50;;;;;;;0.28;100.00;98400.95;104084;1339;22498;-36
2022/11/23 00:37:38;;;;;;;41.60;18.70;;;;;;;0.22;100.00;98396.14;103638;1339;22145;-33
2022/11/23 00:40:04;;;;;;;77.50;29.40;;;;;;;0.13;100.00;98398.45;104107;1330;22235;-36
2022/11/23 00:42:29;;;;;;;36.00;16.00;;;;;;;0.04;100.00;98404.45;104102;1339;22151;-36
2022/11/23 00:44:55;;;;;;;57.70;22.70;;;;;;;0.02;100.00;98408.41;104074;1339;22200;-36
2022/11/23 00:47:20;;;;;;;49.70;21.60;;;;;;;-0.01;100.00;98405.62;104109;1338;22202;-34
2022/11/23 00:49:47;;;;;;;76.20;29.70;;;;;;;-0.00;100.00;98409.66;104085;1337;22198;-33
2022/11/23 00:52:12;;;;;;;73.70;26.50;;;;;;;-0.02;100.00;98413.49;103802;1339;22113;-33
2022/11/23 00:54:39;;;;;;;49.40;21.10;;;;;;;-0.02;100.00;98419.08;103933;1339;22508;-36
2022/11/23 00:57:04;;;;;;;78.40;33.60;;;;;;;0.01;100.00;98423.25;104116;1339;22188;-33
2022/11/23 00:59:30;;;;;;;78.40;29.30;;;;;;;-0.05;100.00;98425.09;104098;1339;22566;-33
2022/11/23 01:01:55;;;;;;;67.80;28.80;;;;;;;-0.11;100.00;98425.48;104055;1338;22264;-33
2022/11/23 01:04:21;;;;;;;68.50;24.10;;;;;;;-0.12;100.00;98425.30;103887;1333;22195;-36
2022/11/23 01:06:46;;;;;;;57.00;23.40;;;;;;;-0.17;100.00;98427.51;103883;1324;22594;-33
2022/11/23 01:09:16;;;;;;;75.60;30.50;;;;;;;-0.19;100.00;98430.39;104150;1339;22347;-32
2022/11/23 01:11:42;;;;;;;69.60;30.80;;;;;;;-0.24;100.00;98420.98;104116;1339;22169;-33
2022/11/23 01:14:08;;;;;;;75.90;30.70;;;;;;;-0.29;100.00;98421.59;103175;1339;22948;-34
2022/11/23 01:16:36;;;;;;;71.50;29.80;;;;;;;-0.32;100.00;98418.10;103436;1325;22530;-34
2022/11/23 01:19:04;;;;;;;56.30;24.40;;;;;;;-0.33;100.00;98428.25;104142;1318;22503;-37
2022/11/23 01:21:31;;;;;;;81.20;30.80;;;;;;;-0.29;100.00;98427.30;104103;1339;22049;-37
2022/11/23 01:23:57;;;;;;;46.40;21.50;;;;;;;-0.30;100.00;98421.28;104047;1336;22497;-33
2022/11/23 01:26:22;;;;;;;65.70;25.80;;;;;;;-0.30;100.00;98428.05;104091;1336;22367;-34
2022/11/23 01:28:48;;;;;;;85.00;32.60;;;;;;;-0.26;100.00;98435.77;104146;1334;22179;-34
2022/11/23 01:31:15;;;;;;;78.40;28.90;;;;;;;-0.31;100.00;98423.06;104042;1334;22033;-33
2022/11/23 01:33:41;;;;;;;73.10;30.20;;;;;;;-0.37;100.00;98416.11;103988;1339;22097;-34
2022/11/23 01:36:09;;;;;;;55.70;24.90;;;;;;;-0.43;100.00;98400.86;104118;1331;22016;-37
2022/11/23 01:38:35;;;;;;;91.10;35.40;;;;;;;-0.51;100.00;98397.63;104114;1339;22336;-34
2022/11/23 01:41:00;;;;;;;109.10;39.60;;;;;;;-0.58;100.00;98397.05;104115;1339;22144;-33
2022/11/23 01:43:26;;;;;;;112.00;43.90;;;;;;;-0.61;100.00;98392.85;104114;1338;22204;-36
2022/11/23 01:45:51;;;;;;;147.30;55.10;;;;;;;-0.65;100.00;98400.81;104098;1338;22248;-37
2022/11/23 01:48:21;;;;;;;132.80;60.30;;;;;;;-0.69;100.00;98410.60;104142;1330;22287;-34
2022/11/23 01:50:48;;;;;;;135.60;66.20;;;;;;;-0.74;100.00;98418.66;104096;1331;22516;-32
2022/11/23 01:53:13;;;;;;;181.90;88.30;;;;;;;-0.75;100.00;98421.64;104100;1331;22568;-33
2022/11/23 01:55:39;;;;;;;269.60;149.60;;;;;;;-0.80;100.00;98423.25;104034;1334;22148;-36
2022/11/23 01:58:05;;;;;;;665.40;263.20;;;;;;;-0.82;100.00;98420.17;104058;1324;22504;-34
2022/11/23 02:00:31;;;;;;;710.70;286.60;;;;;;;-0.83;100.00;98420.30;104066;1339;22747;-37
2022/11/23 02:02:57;;;;;;;489.10;192.70;;;;;;;-0.86;100.00;98419.29;104094;1336;22256;-37
2022/11/23 02:05:26;;;;;;;538.50;228.20;;;;;;;-0.91;100.00;98417.41;103978;1339;22549;-37
2022/11/23 02:07:52;;;;;;;77.20;30.70;;;;;;;-0.95;100.00;98415.98;104070;1327;22216;-33
2022/11/23 02:10:17;;;;;;;67.60;26.10;;;;;;;-0.97;100.00;98413.87;104104;1339;23450;-33
2022/11/23 02:12:43;;;;;;;85.30;35.30;;;;;;;-1.00;100.00;98414.48;104092;1339;22262;-34
2022/11/23 02:15:09;;;;;;;101.70;37.00;;;;;;;-1.02;100.00;98410.27;104148;1339;22146;-33
2022/11/23 02:17:34;;;;;;;65.80;25.60;;;;;;;-1.04;100.00;98410.30;104137;1338;22286;-34
2022/11/23 02:20:05;;;;;;;68.40;24.90;;;;;;;-1.00;100.00;98414.13;103772;1331;462647;-37
2022/11/23 02:22:38;;;;;;;75.90;28.80;;;;;;;-0.96;100.00;98422.38;104137;1339;22525;-36
2022/11/23 02:25:08;;;;;;;168.00;46.70;;;;;;;-0.96;100.00;98424.67;103530;1334;22144;-35
2022/11/23 02:27:33;;;;;;;1179.30;304.10;;;;;;;-0.96;100.00;98425.90;104133;1331;22411;-36
2022/11/23 02:29:59;;;;;;;1583.80;476.40;;;;;;;-0.93;100.00;98425.14;104116;1334;22359;-35
2022/11/23 02:32:25;;;;;;;1795.30;501.70;;;;;;;-0.91;100.00;98425.61;104114;1339;22288;-35
2022/11/23 02:34:50;;;;;;;1479.00;460.30;;;;;;;-0.90;100.00;98422.14;103955;1331;22388;-32
2022/11/23 02:37:16;;;;;;;963.40;325.80;;;;;;;-0.87;100.00;98421.19;104076;1334;22147;-35
2022/11/23 02:39:44;;;;;;;322.80;127.20;;;;;;;-0.86;100.00;98427.06;104038;1339;22594;-35
2022/11/23 02:42:09;;;;;;;499.80;179.90;;;;;;;-0.86;100.00;98424.26;104089;1339;22198;-35
2022/11/23 02:44:46;;;;;;;94.30;39.80;;;;;;;-0.87;100.00;98426.59;104120;1333;22180;-32
2022/11/23 02:47:12;;;;;;;101.00;43.30;;;;;;;-0.88;100.00;98425.81;104102;1331;22212;-35
2022/11/23 02:49:40;;;;;;;77.30;34.20;;;;;;;-0.89;100.00;98429.63;103980;1339;22060;-32
2022/11/23 02:52:06;;;;;;;86.40;34.10;;;;;;;-0.91;100.00;98425.48;103618;1339;22359;-35
2022/11/23 02:54:31;;;;;;;66.20;26.90;;;;;;;-0.95;100.00;98424.41;104122;1338;22297;-34
2022/11/23 02:56:57;;;;;;;71.90;26.00;;;;;;;-0.99;100.00;98425.14;104070;1331;22509;-31
2022/11/23 02:59:23;;;;;;;67.50;24.80;;;;;;;-1.03;100.00;98423.38;104121;1337;22537;-35
2022/11/23 03:01:48;;;;;;;51.30;20.80;;;;;;;-1.08;100.00;98422.80;104124;1331;22122;-31
2022/11/23 03:04:14;;;;;;;70.00;31.00;;;;;;;-1.12;100.00;98426.59;104128;1337;22465;-31
2022/11/23 03:06:40;;;;;;;55.70;22.40;;;;;;;-1.14;100.00;98431.90;104104;1330;22450;-32
2022/11/23 03:09:06;;;;;;;64.90;28.50;;;;;;;-1.16;100.00;98437.29;104088;1339;22518;-32
2022/11/23 03:11:32;;;;;;;76.00;33.10;;;;;;;-1.17;100.00;98443.70;104122;1338;22212;-35
2022/11/23 03:13:58;;;;;;;106.40;46.30;;;;;;;-1.16;100.00;98450.10;104096;1331;22168;-34
2022/11/23 03:16:23;;;;;;;413.40;171.20;;;;;;;-1.13;100.00;98453.53;103997;1331;22503;-32
2022/11/23 03:18:49;;;;;;;367.70;160.60;;;;;;;-1.12;100.00;98457.46;104101;1339;22435;-35
2022/11/23 03:21:15;;;;;;;77.50;27.30;;;;;;;-1.12;100.00;98459.24;104093;1339;22377;-33
2022/11/23 03:23:41;;;;;;;470.10;157.10;;;;;;;-1.12;100.00;98461.38;103859;1323;22522;-31
2022/11/23 03:26:07;;;;;;;166.00;54.30;;;;;;;-1.11;100.00;98464.98;103880;1339;22523;-37
2022/11/23 03:28:32;;;;;;;106.10;33.70;;;;;;;-1.12;100.00;98465.17;103627;1339;22198;-32
2022/11/23 03:30:57;;;;;;;374.70;116.50;;;;;;;-1.11;100.00;98462.67;104122;1334;22216;-32
2022/11/23 03:33:23;;;;;;;480.60;171.00;;;;;;;-1.10;100.00;98459.36;104122;1339;22629;-36
2022/11/23 03:35:48;;;;;;;127.20;40.20;;;;;;;-1.08;100.00;98456.77;104115;1339;22109;-32
2022/11/23 03:38:14;;;;;;;;;;;;;;;-1.06;100.00;98457.46;104078;1339;22265;-35
2022/11/23 03:40:40;;;;;;;476.30;178.60;;;;;;;-1.06;100.00;98453.02;104103;1332;22472;-32
2022/11/23 03:43:05;;;;;;;1412.10;435.90;;;;;;;-1.06;100.00;98450.95;104102;1339;22216;-32
2022/11/23 03:45:31;;;;;;;536.20;189.20;;;;;;;-1.05;100.00;98448.16;104112;1331;22183;-35
2022/11/23 03:47:57;;;;;;;219.50;58.00;;;;;;;-1.05;100.00;98440.95;104111;1337;22151;-32
2022/11/23 03:50:22;;;;;;;511.20;182.10;;;;;;;-1.04;100.00;98442.64;104093;1339;22524;-35
2022/11/23 03:52:48;;;;;;;985.00;264.00;;;;;;;-1.02;100.00;98444.94;104113;1331;22533;-36
2022/11/23 03:55:14;;;;;;;138.10;34.90;;;;;;;-1.01;100.00;98446.42;104116;1339;22185;-35
2022/11/23 03:57:40;;;;;;;70.00;23.80;;;;;;;-1.00;100.00;98445.78;104031;1339;22078;-35
2022/11/23 04:00:07;;;;;;;87.50;27.50;;;;;;;-0.99;100.00;98445.89;103985;1331;22050;-35
2022/11/23 04:02:32;;;;;;;55.60;20.20;;;;;;;-0.97;100.00;98450.40;104045;1339;22504;-31
2022/11/23 04:04:58;;;;;;;67.80;27.30;;;;;;;-0.94;100.00;98455.21;103921;1334;22138;-31
2022/11/23 04:07:23;;;;;;;47.00;17.70;;;;;;;-0.95;100.00;98454.08;104110;1339;22066;-35
2022/11/23 04:09:49;;;;;;;76.10;25.20;;;;;;;-0.93;100.00;98460.76;104117;1339;22692;-32
2022/11/23 04:12:14;;;;;;;67.60;29.30;;;;;;;-0.89;100.00;98464.39;104070;1336;22051;-31
2022/11/23 04:14:40;;;;;;;70.00;29.10;;;;;;;-0.87;100.00;98463.02;104132;1334;22496;-32
2022/11/23 04:17:05;;;;;;;51.60;22.40;;;;;;;-0.91;100.00;98457.80;104109;1334;22240;-35
2022/11/23 04:19:31;;;;;;;82.70;32.50;;;;;;;-0.93;100.00;98462.50;104144;1317;22234;-35
2022/11/23 04:21:57;;;;;;;67.70;27.40;;;;;;;-0.89;100.00;98458.95;104128;1338;22179;-32
2022/11/23 04:24:22;;;;;;;56.80;21.30;;;;;;;-0.89;100.00;98455.81;104047;1339;22020;-32
2022/11/23 04:26:48;;;;;;;47.60;16.70;;;;;;;-0.87;100.00;98451.92;104102;1339;22507;-35
2022/11/23 04:29:14;;;;;;;85.10;31.70;;;;;;;-0.84;100.00;98455.74;104108;1339;22088;-36
2022/11/23 04:31:39;;;;;;;62.40;23.10;;;;;;;-0.87;100.00;98449.48;103998;1334;22562;-32
2022/11/23 04:34:05;;;;;;;60.10;19.60;;;;;;;-0.92;100.00;98450.79;103577;1330;22067;-34
2022/11/23 04:36:30;;;;;;;85.20;27.80;;;;;;;-0.94;100.00;98450.66;104122;1339;22270;-33
2022/11/23 04:38:55;;;;;;;44.00;19.60;;;;;;;-0.97;100.00;98450.73;104109;1339;22147;-33
2022/11/23 04:41:21;;;;;;;75.50;28.90;;;;;;;-0.98;100.00;98450.17;103992;1339;22443;-37
2022/11/23 04:43:47;;;;;;;62.90;25.60;;;;;;;-1.00;100.00;98453.35;104025;1334;22008;-34
2022/11/23 04:46:13;;;;;;;73.40;24.70;;;;;;;-1.01;100.00;98455.16;104135;1331;22176;-33
2022/11/23 04:48:38;;;;;;;71.90;27.70;;;;;;;-0.94;100.00;98460.31;104114;1339;22507;-37
2022/11/23 04:51:04;;;;;;;95.70;32.20;;;;;;;-0.95;100.00;98455.70;104083;1339;22571;-33
2022/11/23 04:53:30;;;;;;;71.20;23.80;;;;;;;-0.98;100.00;98447.48;104121;1331;22187;-33
2022/11/23 04:55:55;;;;;;;53.60;20.70;;;;;;;-1.04;100.00;98446.89;104085;1339;22520;-37
2022/11/23 04:58:22;;;;;;;63.20;25.80;;;;;;;-1.04;100.00;98443.70;104097;1339;22255;-32
2022/11/23 05:00:47;;;;;;;84.70;23.90;;;;;;;-1.01;100.00;98450.48;103724;1338;22074;-37
2022/11/23 05:03:13;;;;;;;76.10;26.20;;;;;;;-1.03;100.00;98449.55;104001;1339;22520;-34
2022/11/23 05:05:39;;;;;;;66.50;23.80;;;;;;;-1.06;100.00;98451.77;104074;1339;22280;-37
2022/11/23 05:08:04;;;;;;;82.20;28.20;;;;;;;-1.04;100.00;98451.92;104104;1331;22208;-37
2022/11/23 05:10:30;;;;;;;73.80;25.70;;;;;;;-1.02;100.00;98453.73;104101;1331;22497;-37
2022/11/23 05:12:55;;;;;;;81.90;28.50;;;;;;;-1.00;100.00;98454.56;104077;1331;22255;-33
2022/11/23 05:15:21;;;;;;;78.40;24.40;;;;;;;-1.00;100.00;98451.18;104090;1330;22501;-37
2022/11/23 05:17:46;;;;;;;78.60;25.10;;;;;;;-1.00;100.00;98452.23;104097;1339;22541;-37
2022/11/23 05:20:12;;;;;;;89.50;29.40;;;;;;;-0.99;100.00;98457.45;104045;1332;22269;-34
2022/11/23 05:22:38;;;;;;;72.60;26.40;;;;;;;-1.00;100.00;98465.08;104107;1339;22119;-37
2022/11/23 05:25:03;;;;;;;89.60;31.00;;;;;;;-0.98;100.00;98466.15;104118;1331;22360;-34
2022/11/23 05:27:29;;;;;;;80.20;23.80;;;;;;;-0.97;100.00;98468.98;104063;1338;22519;-36
2022/11/23 05:29:55;;;;;;;82.00;24.60;;;;;;;-0.96;100.00;98472.75;104014;1341;22688;-34
2022/11/23 05:32:20;;;;;;;122.70;42.00;;;;;;;-0.95;100.00;98475.33;103861;1338;22512;-33
2022/11/23 05:34:46;;;;;;;81.10;27.70;;;;;;;-0.95;100.00;98472.16;104110;1331;22184;-33
2022/11/23 05:37:11;;;;;;;80.10;30.00;;;;;;;-0.92;100.00;98473.65;104085;1339;22188;-37
2022/11/23 05:39:37;;;;;;;96.10;31.20;;;;;;;-0.89;100.00;98471.77;104121;1339;22110;-37
2022/11/23 05:42:02;;;;;;;166.20;58.40;;;;;;;-0.87;100.00;98475.09;104114;1339;22248;-37
2022/11/23 05:44:28;;;;;;;127.10;41.90;;;;;;;-0.85;100.00;98474.08;104124;1339;22399;-37
2022/11/23 05:46:53;;;;;;;118.20;41.20;;;;;;;-0.84;100.00;98471.80;104110;1331;22061;-37
2022/11/23 05:49:19;;;;;;;81.00;32.50;;;;;;;-0.80;100.00;98475.84;104082;1331;22054;-37
2022/11/23 05:51:44;;;;;;;90.50;33.30;;;;;;;-0.79;100.00;98479.59;103972;1334;22308;-37
2022/11/23 05:54:10;;;;;;;135.20;55.30;;;;;;;-0.75;100.00;98484.35;104058;1339;22150;-37
2022/11/23 05:56:35;;;;;;;129.70;48.20;;;;;;;-0.75;100.00;98484.46;104102;1324;22546;-37
2022/11/23 05:59:01;;;;;;;127.20;44.20;;;;;;;-0.72;100.00;98488.23;104058;1336;22522;-37
2022/11/23 06:01:26;;;;;;;104.00;34.70;;;;;;;-0.68;100.00;98482.98;104136;1339;22408;-37
2022/11/23 06:03:52;;;;;;;84.90;28.60;;;;;;;-0.68;100.00;98485.56;104113;1331;22410;-34
2022/11/23 06:06:17;;;;;;;101.90;34.90;;;;;;;-0.64;100.00;98485.21;104105;1339;22567;-37
2022/11/23 06:08:43;;;;;;;106.60;30.90;;;;;;;-0.61;100.00;98489.49;104120;1339;22190;-37
2022/11/23 06:11:08;;;;;;;84.10;34.70;;;;;;;-0.61;100.00;98492.63;104113;1339;22144;-33
2022/11/23 06:13:34;;;;;;;72.00;24.10;;;;;;;-0.60;100.00;98498.34;103992;1337;22530;-37
2022/11/23 06:15:59;;;;;;;71.70;25.10;;;;;;;-0.59;100.00;98497.23;103934;1339;22506;-37
2022/11/23 06:18:25;;;;;;;73.40;25.80;;;;;;;-0.56;100.00;98504.67;103995;1339;23844;-37
2022/11/23 06:20:50;;;;;;;90.40;31.90;;;;;;;-0.57;100.00;98504.57;104105;1331;22171;-33
2022/11/23 06:23:16;;;;;;;91.00;32.90;;;;;;;-0.57;100.00;98512.32;103996;1337;22515;-33
2022/11/23 06:25:41;;;;;;;61.80;21.60;;;;;;;-0.54;100.00;98511.66;103590;1339;22606;-33
2022/11/23 06:28:07;;;;;;;66.80;26.20;;;;;;;-0.53;100.00;98513.80;103104;1333;22512;-34
2022/11/23 06:30:32;;;;;;;58.80;21.10;;;;;;;-0.53;100.00;98517.56;104096;1325;22557;-34
2022/11/23 06:33:01;;;;;;;58.10;19.80;;;;;;;-0.52;100.00;98519.17;103996;1339;22045;-37
2022/11/23 06:35:27;;;;;;;70.50;25.70;;;;;;;-0.51;100.00;98523.36;104062;1331;22071;-33
2022/11/23 06:37:53;;;;;;;70.20;26.60;;;;;;;-0.50;100.00;98524.33;104047;1339;22219;-37
2022/11/23 06:40:19;;;;;;;89.60;30.50;;;;;;;-0.47;100.00;98524.01;104029;1340;22343;-34
2022/11/23 06:42:44;;;;;;;97.00;33.90;;;;;;;-0.48;100.00;98525.14;104004;1340;22067;-37
2022/11/23 06:45:10;;;;;;;54.80;18.40;;;;;;;-0.47;100.00;98529.96;104024;1341;22167;-34
2022/11/23 06:47:36;;;;;;;71.10;22.30;;;;;;;-0.40;100.00;98530.88;104124;1339;22578;-37
2022/11/23 06:50:01;;;;;;;68.00;24.60;;;;;;;-0.35;100.00;98527.83;104078;1331;22207;-33
2022/11/23 06:52:27;;;;;;;88.70;25.30;;;;;;;-0.34;100.00;98531.55;103968;1331;22337;-33
2022/11/23 06:54:52;;;;;;;63.80;19.00;;;;;;;-0.33;100.00;98531.23;104062;1341;22630;-33
2022/11/23 06:57:18;;;;;;;82.00;25.80;;;;;;;-0.32;100.00;98531.36;103653;1339;22512;-37
2022/11/23 06:59:44;;;;;;;93.80;24.40;;;;;;;-0.26;100.00;98537.13;103962;1339;22073;-33
2022/11/23 07:02:10;;;;;;;84.20;26.20;;;;;;;-0.24;100.00;98539.91;104055;1340;22102;-33
2022/11/23 07:04:36;;;;;;;102.60;38.50;;;;;;;-0.24;100.00;98540.80;103961;1339;22501;-37
2022/11/23 07:07:01;;;;;;;78.10;28.60;;;;;;;-0.23;100.00;98538.05;103864;1337;22542;-37
2022/11/23 07:09:27;;;;;;;73.10;31.30;;;;;;;-0.20;100.00;98546.03;103979;1345;22035;-38
2022/11/23 07:11:53;;;;;;;98.30;34.30;;;;;;;-0.14;100.00;98549.17;104090;1339;22212;-37
2022/11/23 07:14:18;;;;;;;84.50;29.60;;;;;;;-0.11;100.00;98548.15;104076;1341;22202;-37
2022/11/23 07:16:44;;;;;;;81.40;30.00;;;;;;;-0.10;100.00;98554.17;104063;1341;22505;-34
2022/11/23 07:19:09;;;;;;;128.90;43.90;;;;;;;-0.08;100.00;98556.58;104074;1339;22258;-37
2022/11/23 07:21:36;;;;;;;124.10;41.40;;;;;;;-0.02;100.00;98559.05;104078;1321;22327;-37
2022/11/23 07:24:02;;;;;;;96.60;32.80;;;;;;;0.03;100.00;98556.09;104082;1335;22557;-33
2022/11/23 07:26:27;;;;;;;101.50;33.60;;;;;;;0.07;100.00;98559.06;104052;1339;22858;-36
2022/11/23 07:28:53;;;;;;;75.00;28.20;;;;;;;0.07;100.00;98558.38;104065;1340;22204;-37
2022/11/23 07:31:18;;;;;;;97.50;34.70;;;;;;;0.09;100.00;98558.52;104034;1330;22150;-37
2022/11/23 07:33:44;;;;;;;75.50;29.60;;;;;;;0.13;100.00;98564.95;104101;1333;22166;-33
2022/11/23 07:36:10;;;;;;;81.00;27.70;;;;;;;0.17;100.00;98565.95;103924;1336;23287;-33
2022/11/23 07:38:36;;;;;;;122.00;39.40;;;;;;;0.25;100.00;98569.39;103833;1339;22608;-33
2022/11/23 07:41:02;;;;;;;101.90;31.80;;;;;;;0.29;100.00;98565.36;103933;1339;22537;-37
2022/11/23 07:43:28;;;;;;;81.40;27.70;;;;;;;0.33;100.00;98564.08;104088;1337;22531;-34
2022/11/23 07:45:55;;;;;;;63.50;25.20;;;;;;;0.40;100.00;98570.91;104062;1340;22088;-34
2022/11/23 07:48:21;;;;;;;64.60;26.30;;;;;;;0.43;100.00;98574.14;104042;1334;22541;-37
2022/11/23 07:50:47;;;;;;;45.60;19.10;;;;;;;0.48;100.00;98574.02;103948;1339;22279;-33
2022/11/23 07:53:13;;;;;;;61.70;21.60;;;;;;;0.58;100.00;98577.45;104016;1337;22705;-37
2022/11/23 07:55:38;;;;;;;63.40;25.10;;;;;;;0.65;100.00;98580.36;104049;1339;22558;-33
2022/11/23 07:58:05;;;;;;;55.70;21.10;;;;;;;0.74;100.00;98578.47;104016;1341;22522;-37
2022/11/23 08:00:30;;;;;;;80.10;26.90;;;;;;;0.74;100.00;98573.23;103797;1342;24523;-32
2022/11/23 08:02:57;;;;;;;37.10;13.50;;;;;;;0.72;100.00;98562.80;103670;1340;22038;-37
2022/11/23 08:05:23;;;;;;;67.80;24.40;;;;;;;0.71;100.00;98560.25;104082;1334;22496;-37
2022/11/23 08:07:49;;;;;;;50.20;20.60;;;;;;;0.69;100.00;98550.56;103907;1339;22123;-33
2022/11/23 08:10:15;;;;;;;78.80;29.80;;;;;;;0.79;100.00;98550.98;103727;1345;22201;-33
2022/11/23 08:12:41;;;;;;;65.30;23.20;;;;;;;0.90;100.00;98553.55;104036;1345;22181;-34
2022/11/23 08:15:07;;;;;;;81.30;32.10;;;;;;;0.93;100.00;98553.98;104085;1330;22569;-33
2022/11/23 08:17:33;;;;;;;76.30;28.90;;;;;;;0.86;100.00;98536.89;103946;1339;22588;-33
2022/11/23 08:19:58;;;;;;;71.80;26.50;;;;;;;0.83;100.00;98531.69;103925;1337;22527;-37
2022/11/23 08:22:25;;;;;;;82.10;27.70;;;;;;;0.86;100.00;98518.42;104075;1341;22053;-33
2022/11/23 08:24:51;;;;;;;30.60;15.30;;;;;;;0.88;100.00;98515.38;104070;1337;22065;-33
2022/11/23 08:27:16;;;;;;;64.70;20.40;;;;;;;0.93;100.00;98512.71;103817;1331;24270;-37
2022/11/23 08:29:42;;;;;;;64.60;23.00;;;;;;;0.94;100.00;98513.88;103861;1337;22512;-37
2022/11/23 08:32:07;;;;;;;35.10;12.50;;;;;;;0.91;100.00;98512.02;103973;1339;22049;-37
2022/11/23 08:34:33;;;;;;;26.80;10.90;;;;;;;0.92;100.00;98508.27;104099;1324;22527;-32
2022/11/23 08:36:58;;;;;;;80.70;29.70;;;;;;;1.04;100.00;98506.02;104005;1339;22513;-33
2022/11/23 08:39:24;;;;;;;69.70;27.20;;;;;;;1.08;100.00;98508.55;103826;1340;23738;-33
2022/11/23 08:41:50;;;;;;;54.30;20.00;;;;;;;1.15;100.00;98511.20;104054;1341;22587;-33
2022/11/23 08:44:15;;;;;;;61.80;21.30;;;;;;;1.16;100.00;98503.31;104038;1342;22194;-34
2022/11/23 08:46:41;;;;;;;39.40;16.90;;;;;;;1.19;100.00;98495.22;104062;1339;22230;-37
2022/11/23 08:49:06;;;;;;;56.50;21.90;;;;;;;1.24;100.00;98496.30;104046;1337;22237;-34
2022/11/23 08:51:32;;;;;;;67.70;25.40;;;;;;;1.38;100.00;98500.51;104032;1339;22285;-33
2022/11/23 08:53:58;;;;;;;95.60;33.60;;;;;;;1.39;100.00;98504.06;104094;1337;22117;-37
2022/11/23 08:56:23;;;;;;;70.00;26.60;;;;;;;1.39;100.00;98499.86;104042;1338;22083;-37
2022/11/23 08:58:49;;;;;;;65.30;21.20;;;;;;;1.44;100.00;98497.46;104078;1337;22083;-34
2022/11/23 09:01:15;;;;;;;93.60;33.90;;;;;;;1.45;100.00;98496.61;104054;1339;22160;-37
2022/11/23 09:03:40;;;;;;;69.00;27.00;;;;;;;1.52;100.00;98489.64;104100;1337;22124;-37
2022/11/23 09:06:06;;;;;;;91.50;33.20;;;;;;;1.67;100.00;98489.55;103396;1339;22518;-36
2022/11/23 09:08:32;;;;;;;86.90;27.50;;;;;;;1.84;100.00;98484.85;103617;1338;22520;-33
2022/11/23 09:11:00;;;;;;;101.60;30.90;;;;;;;2.09;100.00;98480.34;103825;1337;22139;-37
2022/11/23 09:13:26;;;;;;;69.30;29.70;;;;;;;2.23;100.00;98470.77;104039;1339;22185;-37
2022/11/23 09:15:57;;;;;;;104.00;37.40;;;;;;;2.31;100.00;98468.84;104093;1330;22204;-37
2022/11/23 09:18:24;;;;;;;85.10;31.00;;;;;;;2.49;100.00;98467.06;104084;1339;22654;-36
2022/11/23 09:20:49;;;;;;;71.10;26.10;;;;;;;2.73;100.00;98461.79;103944;1342;22615;-33
2022/11/23 09:23:15;;;;;;;58.10;26.20;;;;;;;3.03;100.00;98457.59;103822;1334;22290;-34
2022/11/23 09:25:42;;;;;;;64.50;27.80;;;;;;;3.24;100.00;98447.24;104029;1339;25131;-36
2022/11/23 09:28:11;;;;;;;70.10;26.30;;;;;;;3.33;100.00;98437.59;104079;1330;22044;-37
2022/11/23 09:30:36;;;;;;;44.20;20.30;;;;;;;3.50;100.00;98437.20;104101;1339;22542;-37
2022/11/23 09:33:02;;;;;;;38.80;18.70;;;;;;;3.49;100.00;98429.56;103972;1339;23188;-34
2022/11/23 09:35:28;;;;;;;55.10;20.60;;;;;;;3.77;100.00;98424.70;103973;1339;22295;-33
2022/11/23 09:37:56;;;;;;;70.50;29.20;;;;;;;3.89;100.00;98418.94;104035;1338;22618;-37
2022/11/23 09:40:22;;;;;;;53.90;24.30;;;;;;;4.14;100.00;98413.22;103813;1340;22236;-34
2022/11/23 09:42:53;;;;;;;71.60;33.80;;;;;;;4.12;100.00;98409.11;103635;1339;22187;-36
2022/11/23 09:45:26;;;;;;;56.30;28.50;;;;;;;4.08;100.00;98409.23;104040;1328;22522;-33
2022/11/23 09:48:02;;;;;;;55.50;23.00;;;;;;;4.13;100.00;98402.73;104034;1339;22282;-34
2022/11/23 09:50:33;;;;;;;44.50;18.90;;;;;;;4.33;100.00;98400.11;104068;1339;22628;-37
2022/11/23 09:53:03;;;;;;;74.00;29.40;;;;;;;4.21;100.00;98397.61;103601;1339;22183;-33
2022/11/23 09:55:35;;;;;;;49.10;27.20;;;;;;;4.35;100.00;98393.19;104102;1331;22065;-36
2022/11/23 09:58:03;;;;;;;137.50;93.50;;;;;;;4.40;100.00;98394.00;104065;1331;22303;-36
2022/11/23 10:00:36;;;;;;;53.80;24.00;;;;;;;4.37;100.00;98392.55;103804;1339;22601;-36
2022/11/23 10:03:01;;;;;;;68.40;29.10;;;;;;;4.50;100.00;98399.91;104053;1339;22275;-33
2022/11/23 10:05:27;;;;;;;60.30;27.70;;;;;;;4.36;100.00;98393.61;103968;1339;22158;-33
2022/11/23 10:07:55;;;;;;;69.00;32.20;;;;;;;4.47;100.00;98389.58;103832;1333;22520;-33
2022/11/23 10:10:25;;;;;;;60.60;24.30;;;;;;;4.53;100.00;98386.77;104104;1338;22255;-32
2022/11/23 10:12:55;;;;;;;55.40;23.80;;;;;;;4.50;100.00;98385.77;104020;1339;22496;-32
2022/11/23 10:15:26;;;;;;;56.00;23.70;;;;;;;4.61;100.00;98380.12;103627;1339;22279;-36
2022/11/23 10:18:01;;;;;;;47.10;19.70;;;;;;;4.77;99.97;98377.19;103919;1327;22507;-33
2022/11/23 10:20:34;;;;;;;62.00;23.40;;;;;;;4.97;99.96;98379.02;103666;1336;591708;-33
2022/11/23 10:23:00;;;;;;;52.90;24.00;;;;;;;5.26;100.00;98380.81;104066;1323;22297;-33
2022/11/23 10:25:30;;;;;;;51.20;24.50;;;;;;;5.51;100.00;98378.26;104002;1331;24329;-36
2022/11/23 10:27:59;;;;;;;59.00;25.80;;;;;;;5.69;98.90;98380.86;104001;1323;22514;-35
2022/11/23 10:30:25;;;;;;;43.10;23.70;;;;;;;5.74;97.93;98380.36;104004;1324;22119;-33
2022/11/23 10:32:57;;;;;;;59.30;23.20;;;;;;;5.85;97.08;98381.89;103992;1339;22101;-36
2022/11/23 10:35:28;;;;;;;49.90;25.70;;;;;;;5.95;95.45;98380.66;103888;1332;23168;-33
2022/11/23 10:38:03;;;;;;;52.00;25.50;;;;;;;6.17;94.75;98383.22;103951;1339;22094;-36
2022/11/23 10:40:29;;;;;;;52.20;24.90;;;;;;;6.25;94.28;98380.66;103780;1339;22273;-36
2022/11/23 10:42:58;;;;;;;58.20;24.00;;;;;;;6.45;92.76;98381.46;104067;1339;22679;-34
2022/11/23 10:45:25;;;;;;;45.00;24.50;;;;;;;6.64;92.26;98380.17;104014;1339;22111;-33
2022/11/23 10:47:53;;;;;;;37.40;18.70;;;;;;;6.75;91.15;98375.48;103760;1339;24321;-33
2022/11/23 10:50:22;;;;;;;56.90;26.20;;;;;;;6.91;90.92;98366.86;104004;1339;22522;-33
2022/11/23 10:52:50;;;;;;;52.50;25.30;;;;;;;6.74;89.76;98367.43;103948;1339;22542;-33
2022/11/23 10:55:16;;;;;;;46.50;21.50;;;;;;;6.45;89.74;98368.00;103706;1339;24348;-33
2022/11/23 10:57:43;;;;;;;45.30;19.60;;;;;;;6.01;90.33;98365.14;103869;1331;22514;-36